Time;durP1;ratioP1;P1;durP2;ratioP2;P2;SDS_P1;SDS_P2;PMS_P1;PMS_P2;Temp;Humidity;BMP_temperature;BMP_pressure;BME280_temperature;BME280_humidity;BME280_pressure;Samples;Min_cycle;Max_cycle;Signal;HPM_P1;HPM_P2
2021/07/14 00:01:24;;;;;;;2.95;2.70;;;14.30;99.90;;;15.36;100.00;97410.53;5176320;28;20221;-69
2021/07/14 00:03:57;;;;;;;2.85;2.65;;;14.30;99.90;;;15.35;100.00;97401.94;5196267;28;20206;-69
2021/07/14 00:06:41;;;;;;;2.58;2.38;;;14.30;99.90;;;15.29;100.00;97399.16;5197529;28;20195;-68
2021/07/14 00:09:15;;;;;;;3.45;2.53;;;14.30;99.90;;;15.31;100.00;97393.25;5167352;28;20219;-69
2021/07/14 00:11:54;;;;;;;2.80;2.60;;;14.30;99.90;;;15.33;100.00;97391.56;5167634;28;20198;-69
2021/07/14 00:14:56;;;;;;;2.75;2.20;;;14.20;99.90;;;15.33;100.00;97394.13;5182558;28;20907;-68
2021/07/14 00:17:49;;;;;;;2.53;2.38;;;14.30;99.90;;;15.32;100.00;97389.84;5167828;28;20675;-69
2021/07/14 00:23:14;;;;;;;2.58;2.35;;;14.20;99.90;;;15.27;100.00;97390.50;5176298;28;20202;-69
2021/07/14 00:25:48;;;;;;;3.03;2.88;;;14.20;99.90;;;15.28;100.00;97385.44;5208172;28;20635;-69
2021/07/14 00:28:23;;;;;;;4.05;3.75;;;14.30;99.90;;;15.27;100.00;97381.09;5188603;28;20194;-69
2021/07/14 00:30:59;;;;;;;4.47;3.83;;;14.20;99.90;;;15.26;100.00;97371.63;5172585;28;20229;-69
2021/07/14 00:33:32;;;;;;;4.68;4.25;;;14.20;99.90;;;15.28;100.00;97376.81;5172566;28;20256;-69
2021/07/14 00:36:05;;;;;;;3.95;3.65;;;14.20;99.90;;;15.25;100.00;97376.72;5203752;28;20237;-69
2021/07/14 00:38:39;;;;;;;4.50;4.10;;;14.20;99.90;;;15.29;100.00;97357.97;5187158;28;20226;-69
2021/07/14 00:41:14;;;;;;;4.32;3.92;;;14.20;99.90;;;15.25;100.00;97356.13;5181398;28;20301;-69
2021/07/14 00:43:47;;;;;;;4.20;3.83;;;14.20;99.90;;;15.21;100.00;97346.56;5183052;28;20197;-69
2021/07/14 00:46:23;;;;;;;3.70;3.40;;;14.20;99.90;;;15.21;100.00;97331.97;5187447;28;20617;-69
2021/07/14 00:49:00;;;;;;;3.75;3.55;;;14.20;99.90;;;15.17;100.00;97327.56;5189717;28;20576;-69
2021/07/14 00:51:33;;;;;;;3.53;3.22;;;14.20;99.90;;;15.13;100.00;97330.88;5186481;28;20290;-69
2021/07/14 00:54:07;;;;;;;3.83;3.63;;;14.10;99.90;;;15.19;100.00;97341.34;5167935;28;20199;-69
2021/07/14 00:56:41;;;;;;;3.97;3.78;;;14.10;99.90;;;15.05;100.00;97360.66;5166426;28;20705;-69
2021/07/14 00:59:14;;;;;;;3.50;3.20;;;14.10;99.90;;;15.03;100.00;97380.34;5183228;28;20309;-69
2021/07/14 01:01:48;;;;;;;2.85;2.65;;;14.10;99.90;;;14.98;100.00;97400.75;5196948;28;20221;-69
2021/07/14 01:04:28;;;;;;;3.72;3.30;;;14.00;99.90;;;14.90;100.00;97437.38;5193722;28;20276;-69
2021/07/14 01:07:08;;;;;;;2.97;2.83;;;13.90;99.90;;;14.83;100.00;97462.91;5187284;28;20281;-68
2021/07/14 01:09:53;;;;;;;3.85;3.30;;;13.90;99.90;;;14.76;100.00;97467.78;5186767;28;20305;-69
2021/07/14 01:12:34;;;;;;;3.65;3.45;;;13.80;99.90;;;14.71;100.00;97467.63;5184939;28;20693;-69
2021/07/14 01:15:13;;;;;;;5.10;4.45;;;13.80;99.90;;;14.68;100.00;97459.81;5193239;28;20199;-68
2021/07/14 01:17:52;;;;;;;5.20;4.70;;;13.80;99.90;;;14.70;100.00;97454.72;5205525;28;20205;-69
2021/07/14 01:20:46;;;;;;;4.82;4.43;;;13.80;99.90;;;14.66;100.00;97452.88;5206787;28;20225;-69
2021/07/14 01:23:30;;;;;;;5.20;4.70;;;13.80;99.90;;;14.69;100.00;97448.69;5167986;28;20199;-69
2021/07/14 01:26:17;;;;;;;4.78;4.47;;;13.80;99.90;;;14.72;100.00;97458.22;5166386;28;20207;-69
2021/07/14 01:28:56;;;;;;;4.78;4.28;;;13.80;99.90;;;14.72;100.00;97471.09;5177306;28;20281;-69
2021/07/14 01:31:30;;;;;;;4.80;4.50;;;13.90;99.90;;;14.72;100.00;97471.94;5202852;28;20296;-69
2021/07/14 01:34:06;;;;;;;4.45;4.07;;;13.80;99.90;;;14.71;100.00;97477.94;5191292;28;20206;-68
2021/07/14 01:36:43;;;;;;;4.25;3.80;;;13.80;99.90;;;14.76;100.00;97467.78;5184742;28;20207;-69
2021/07/14 01:39:17;;;;;;;4.38;3.97;;;13.90;99.90;;;14.79;100.00;97466.22;5171128;28;20234;-70
2021/07/14 01:41:52;;;;;;;3.92;3.72;;;13.90;99.90;;;14.81;100.00;97474.84;5167341;28;20217;-69
2021/07/14 01:44:28;;;;;;;4.30;3.90;;;13.90;99.90;;;14.86;100.00;97481.00;5170791;28;20204;-69
2021/07/14 01:47:03;;;;;;;4.47;4.18;;;14.00;99.90;;;14.85;100.00;97476.72;5165692;28;20285;-66
2021/07/14 01:49:37;;;;;;;4.03;3.80;;;14.00;99.90;;;14.90;100.00;97489.72;5170884;28;20256;-69
2021/07/14 01:52:15;;;;;;;4.30;4.00;;;13.90;99.90;;;14.84;100.00;97482.66;5193804;28;20201;-69
2021/07/14 01:54:50;;;;;;;4.13;3.83;;;14.00;99.90;;;14.80;100.00;97480.81;5186131;28;20289;-68
2021/07/14 01:57:27;;;;;;;3.78;3.58;;;13.90;99.90;;;14.84;100.00;97482.66;5185740;28;20240;-69
2021/07/14 02:00:08;;;;;;;4.10;3.80;;;14.00;99.90;;;14.92;100.00;97480.34;5186565;28;20229;-68
2021/07/14 02:02:50;;;;;;;4.47;4.07;;;14.00;99.90;;;14.96;100.00;97471.03;5185112;28;20203;-69
2021/07/14 02:05:24;;;;;;;3.88;3.58;;;14.00;99.90;;;15.01;100.00;97464.34;5165836;28;20583;-69
2021/07/14 02:07:59;;;;;;;4.20;3.90;;;14.10;99.90;;;15.03;100.00;97454.97;5203884;23;20226;-60
2021/07/14 02:10:34;;;;;;;4.32;4.03;;;14.10;99.90;;;15.03;100.00;97448.13;5192448;28;20190;-60
2021/07/14 02:13:08;;;;;;;4.07;3.63;;;14.10;99.90;;;15.05;100.00;97440.44;5186760;28;20204;-60
2021/07/14 02:15:44;;;;;;;3.88;3.58;;;14.10;99.90;;;15.06;100.00;97437.06;5205323;28;20201;-59
2021/07/14 02:18:21;;;;;;;3.92;3.08;;;14.10;99.90;;;15.04;100.00;97443.84;5204999;28;20335;-60
2021/07/14 02:20:55;;;;;;;3.70;3.40;;;14.00;99.90;;;15.04;100.00;97444.72;5197624;28;20198;-60
2021/07/14 02:23:28;;;;;;;3.50;3.22;;;14.10;99.90;;;15.02;99.99;97438.66;5185411;28;20202;-59
2021/07/14 02:26:02;;;;;;;3.20;2.90;;;14.00;99.90;;;14.95;99.85;97448.69;5184977;28;20591;-60
2021/07/14 02:28:35;;;;;;;3.88;3.50;;;14.00;99.90;;;14.86;100.00;97439.84;5184993;28;20724;-60
2021/07/14 02:31:10;;;;;;;4.85;3.67;;;13.90;99.90;;;14.85;99.74;97432.06;5184677;28;20202;-60
2021/07/14 02:33:43;;;;;;;3.95;3.53;;;13.90;99.90;;;14.86;99.52;97438.97;5194441;28;20232;-60
2021/07/14 02:36:17;;;;;;;3.85;3.55;;;13.90;99.90;;;14.85;99.67;97438.09;5191990;28;20194;-60
2021/07/14 02:38:57;;;;;;;3.55;3.30;;;13.90;99.90;;;14.85;99.32;97448.41;5184251;28;20316;-60
2021/07/14 02:41:40;;;;;;;3.67;3.35;;;13.90;99.90;;;14.85;99.32;97447.50;5184655;28;20621;-60
2021/07/14 02:44:15;;;;;;;3.35;3.13;;;13.90;99.90;;;14.83;98.98;97438.88;5184892;28;20194;-60
2021/07/14 02:46:55;;;;;;;3.75;3.20;;;13.90;99.90;;;14.84;98.98;97446.63;5184233;28;20208;-60
2021/07/14 02:49:28;;;;;;;3.80;3.50;;;13.90;99.90;;;14.83;99.10;97441.44;5168158;28;20643;-60
2021/07/14 02:52:03;;;;;;;3.80;3.60;;;14.00;99.90;;;14.84;98.45;97430.31;5185535;28;20206;-60
2021/07/14 02:54:40;;;;;;;3.65;3.38;;;13.90;99.90;;;14.84;98.37;97428.63;5184449;28;20202;-60
2021/07/14 02:57:16;;;;;;;3.80;3.55;;;13.90;99.90;;;14.78;98.31;97431.00;5184277;28;20257;-60
2021/07/14 02:59:54;;;;;;;3.90;3.63;;;13.90;99.90;;;14.73;98.70;97432.53;5186431;28;20229;-60
2021/07/14 03:02:30;;;;;;;3.33;3.13;;;13.90;99.90;;;14.75;99.15;97440.31;5199092;28;20197;-61
2021/07/14 03:05:05;;;;;;;4.00;3.70;;;13.90;99.90;;;14.71;98.94;97448.72;5185774;28;20209;-61
2021/07/14 03:07:40;;;;;;;4.17;3.37;;;13.80;99.90;;;14.66;98.51;97453.75;5148396;28;1062644;-61
2021/07/14 03:10:16;;;;;;;3.60;3.30;;;13.80;99.90;;;14.64;98.95;97440.81;5184669;28;20452;-61
2021/07/14 03:12:57;;;;;;;3.33;3.13;;;13.90;99.90;;;14.64;98.79;97432.22;5186209;28;20194;-60
2021/07/14 03:15:31;;;;;;;3.80;3.60;;;13.90;99.90;;;14.62;98.59;97433.84;5205169;28;20210;-60
2021/07/14 03:18:07;;;;;;;4.25;3.85;;;13.80;99.90;;;14.66;99.12;97438.31;5204937;28;20658;-60
2021/07/14 03:20:41;;;;;;;3.70;3.40;;;13.80;99.90;;;14.52;98.44;97449.81;5190181;28;20313;-61
2021/07/14 03:23:15;;;;;;;3.40;3.10;;;13.70;99.90;;;14.49;99.04;97453.13;5187663;28;20204;-61
2021/07/14 03:25:52;;;;;;;3.55;3.35;;;13.70;99.90;;;14.45;98.99;97452.94;5191184;28;20626;-60
2021/07/14 03:28:30;;;;;;;4.07;3.75;;;13.70;99.90;;;14.46;98.56;97445.28;5208152;28;20210;-61
2021/07/14 03:31:03;;;;;;;3.80;3.50;;;13.60;99.90;;;14.47;99.38;97446.16;5191142;28;20205;-60
2021/07/14 03:33:37;;;;;;;4.05;3.70;;;13.70;99.90;;;14.41;98.94;97441.69;5189960;28;20206;-60
2021/07/14 03:36:11;;;;;;;3.97;3.60;;;13.60;99.90;;;14.41;98.90;97449.41;5206825;28;20201;-60
2021/07/14 03:38:44;;;;;;;4.55;3.90;;;13.60;99.90;;;14.43;99.93;97452.91;5207269;28;20228;-61
2021/07/14 03:41:18;;;;;;;5.65;3.90;;;13.70;99.90;;;14.46;100.00;97452.13;5189342;28;20214;-61
2021/07/14 03:43:53;;;;;;;4.40;4.10;;;13.70;99.90;;;14.48;99.45;97445.34;5190410;28;20195;-61
2021/07/14 03:46:27;;;;;;;4.35;3.90;;;13.70;99.90;;;14.48;99.81;97432.47;5188090;28;20213;-60
2021/07/14 03:49:02;;;;;;;4.63;4.28;;;13.70;99.90;;;14.54;99.62;97435.31;5199020;28;20225;-61
2021/07/14 03:51:35;;;;;;;4.28;3.90;;;13.80;99.90;;;14.56;99.22;97442.22;5209336;28;20197;-61
2021/07/14 03:54:09;;;;;;;4.10;3.80;;;13.80;99.90;;;14.58;99.22;97447.44;5206988;28;20236;-61
2021/07/14 03:56:43;;;;;;;4.43;4.03;;;13.80;99.90;;;14.56;98.99;97455.09;5199304;28;20199;-60
2021/07/14 03:59:17;;;;;;;5.10;3.80;;;13.70;99.90;;;14.46;98.98;97452.13;5194410;28;20209;-60
2021/07/14 04:01:50;;;;;;;4.10;3.80;;;13.70;99.90;;;14.49;99.31;97462.53;5203579;28;20208;-61
2021/07/14 04:04:25;;;;;;;4.25;3.95;;;13.80;99.90;;;14.54;99.14;97455.91;5194998;28;20623;-60
2021/07/14 04:07:05;;;;;;;4.22;3.83;;;13.80;99.90;;;14.58;98.65;97457.75;5187641;28;20229;-60
2021/07/14 04:09:38;;;;;;;4.05;3.70;;;13.80;99.90;;;14.57;98.53;97456.00;5207505;28;20285;-59
2021/07/14 04:12:12;;;;;;;4.13;3.80;;;13.80;99.90;;;14.57;98.16;97456.88;5189799;28;20199;-61
2021/07/14 04:14:45;;;;;;;4.13;3.60;;;13.80;99.90;;;14.54;98.98;97456.75;5188851;28;20563;-61
2021/07/14 04:17:18;;;;;;;4.88;3.92;;;13.90;99.90;;;14.59;98.59;97464.63;5186786;28;20226;-60
2021/07/14 04:19:53;;;;;;;4.13;3.80;;;13.80;99.90;;;14.64;99.11;97457.94;5186437;28;20246;-60
2021/07/14 04:22:26;;;;;;;5.03;4.50;;;13.90;99.90;;;14.65;98.67;97454.56;5186162;28;20194;-61
2021/07/14 04:25:00;;;;;;;4.38;3.97;;;13.90;99.90;;;14.63;100.00;97448.50;5182550;28;20205;-63
2021/07/14 04:27:33;;;;;;;4.40;4.00;;;14.00;99.90;;;14.69;99.68;97452.97;5185562;28;20222;-63
2021/07/14 04:30:08;;;;;;;4.35;4.05;;;13.90;99.90;;;14.72;99.42;97450.50;5187038;28;20190;-63
2021/07/14 04:32:41;;;;;;;3.80;3.50;;;13.90;99.90;;;14.68;98.23;97448.63;5188183;28;20713;-62
2021/07/14 04:35:15;;;;;;;3.83;3.53;;;13.90;99.90;;;14.64;99.29;97445.09;5187817;28;20281;-63
2021/07/14 04:37:50;;;;;;;5.07;4.05;;;13.90;99.90;;;14.63;97.91;97443.34;5187186;28;20228;-63
2021/07/14 04:40:23;;;;;;;3.80;3.50;;;13.80;99.90;;;14.61;98.41;97437.25;5187977;28;20195;-63
2021/07/14 04:42:56;;;;;;;4.35;3.30;;;13.90;99.90;;;14.64;99.10;97442.50;5190072;28;20207;-63
2021/07/14 04:45:29;;;;;;;4.13;3.83;;;13.90;99.90;;;14.71;98.80;97436.78;5186320;28;20578;-62
2021/07/14 04:48:03;;;;;;;3.53;3.33;;;13.90;99.90;;;14.76;97.74;97440.34;5190052;28;20218;-63
2021/07/14 04:50:38;;;;;;;4.10;3.75;;;13.90;99.90;;;14.78;97.53;97441.28;5168073;28;20231;-63
2021/07/14 04:53:11;;;;;;;4.13;3.92;;;14.00;99.90;;;14.67;96.46;97452.91;5180962;28;20194;-63
2021/07/14 04:55:44;;;;;;;4.07;3.78;;;13.90;99.90;;;14.68;97.02;97453.78;5187063;28;20190;-63
2021/07/14 04:58:17;;;;;;;4.28;3.85;;;13.80;99.90;;;14.70;98.23;97442.72;5187238;28;20413;-63
2021/07/14 05:00:50;;;;;;;4.05;3.70;;;13.90;99.90;;;14.79;97.93;97447.28;5191431;28;20186;-63
2021/07/14 05:03:24;;;;;;;3.97;3.55;;;14.00;99.90;;;14.82;97.52;97448.31;5194118;28;20208;-62
2021/07/14 05:05:59;;;;;;;3.72;3.28;;;14.00;99.90;;;14.84;97.72;97450.91;5199259;28;20197;-62
2021/07/14 05:08:32;;;;;;;3.78;3.47;;;14.10;99.90;;;14.83;98.49;97444.88;5186838;28;20234;-63
2021/07/14 05:11:05;;;;;;;4.43;3.97;;;14.10;99.90;;;14.94;98.43;97441.81;5185842;28;20573;-63
2021/07/14 05:13:38;;;;;;;3.95;3.58;;;14.20;99.90;;;15.03;97.76;97442.09;5195867;28;20560;-60
2021/07/14 05:16:11;;;;;;;4.00;3.72;;;14.20;99.90;;;15.03;97.15;97442.09;5191279;28;20289;-61
2021/07/14 05:18:45;;;;;;;4.30;3.65;;;14.20;99.90;;;15.05;97.22;97445.59;5186288;28;20777;-60
2021/07/14 05:21:19;;;;;;;4.03;3.72;;;14.20;99.90;;;15.08;97.41;97446.59;5190823;28;20198;-60
2021/07/14 05:23:52;;;;;;;4.50;4.07;;;14.30;99.90;;;15.11;96.93;97445.81;5185450;28;20194;-61
2021/07/14 05:26:26;;;;;;;4.18;3.85;;;14.30;99.90;;;15.13;96.65;97454.44;5188452;28;20197;-61
2021/07/14 05:28:59;;;;;;;5.07;4.05;;;14.30;99.90;;;15.10;96.00;97455.22;5192416;28;20218;-61
2021/07/14 05:31:33;;;;;;;4.72;4.30;;;14.20;99.90;;;15.01;95.22;97449.75;5185983;28;20222;-61
2021/07/14 05:34:06;;;;;;;3.80;3.50;;;14.10;99.90;;;15.04;96.44;97459.28;5185698;28;20203;-61
2021/07/14 05:36:41;;;;;;;4.35;4.00;;;14.20;99.90;;;15.04;97.10;97449.00;5186008;28;20205;-59
2021/07/14 05:39:15;;;;;;;4.60;4.30;;;14.30;99.90;;;15.04;97.00;97464.44;5190858;28;20654;-60
2021/07/14 05:41:48;;;;;;;4.25;3.95;;;14.30;99.90;;;15.13;97.26;97451.88;5187911;28;20193;-60
2021/07/14 05:44:21;;;;;;;4.88;4.50;;;14.40;99.90;;;15.15;96.94;97452.78;5185541;28;20202;-61
2021/07/14 05:46:54;;;;;;;5.22;4.68;;;14.40;99.90;;;15.12;97.73;97446.69;5184901;28;20210;-61
2021/07/14 05:49:28;;;;;;;5.10;4.60;;;14.40;99.90;;;15.21;97.05;97447.84;5186260;28;20421;-61
2021/07/14 05:52:03;;;;;;;4.85;4.40;;;14.40;99.90;;;15.26;96.84;97441.16;5185878;28;20230;-61
2021/07/14 05:54:37;;;;;;;4.95;4.55;;;14.50;99.90;;;15.33;96.60;97432.78;5185416;28;20201;-61
2021/07/14 05:57:10;;;;;;;4.18;3.88;;;14.50;99.90;;;15.42;96.76;97431.31;5185705;28;20225;-60
2021/07/14 05:59:43;;;;;;;4.75;4.13;;;14.60;99.90;;;15.44;96.31;97425.38;5183605;28;20285;-59
2021/07/14 06:02:16;;;;;;;5.03;4.63;;;14.60;99.90;;;15.47;95.89;97430.63;5188770;28;20194;-61
2021/07/14 06:04:49;;;;;;;4.80;4.40;;;14.60;99.90;;;15.50;96.28;97432.44;5192832;28;20261;-60
2021/07/14 06:07:24;;;;;;;5.00;4.63;;;14.60;99.90;;;15.47;95.72;97427.19;5186060;28;20226;-60
2021/07/14 06:09:57;;;;;;;5.45;4.70;;;14.60;99.90;;;15.51;95.57;97437.66;5185165;28;20208;-60
2021/07/14 06:12:30;;;;;;;5.20;4.80;;;14.60;99.90;;;15.50;94.93;97440.16;5186121;28;20223;-61
2021/07/14 06:15:04;;;;;;;4.60;4.30;;;14.60;99.90;;;15.51;95.24;97439.34;5186714;28;20209;-60
2021/07/14 06:17:37;;;;;;;5.88;5.22;;;14.70;99.90;;;15.57;95.16;97447.25;5182190;28;20230;-61
2021/07/14 06:20:12;;;;;;;5.40;5.00;;;14.70;99.90;;;15.53;95.38;97441.13;5184474;28;20322;-61
2021/07/14 06:22:47;;;;;;;5.28;4.80;;;14.80;99.90;;;15.58;95.43;97433.53;5184691;28;20198;-60
2021/07/14 06:25:21;;;;;;;5.45;4.93;;;14.80;99.90;;;15.63;95.15;97439.72;5185305;28;20198;-60
2021/07/14 06:27:54;;;;;;;5.00;4.60;;;14.80;99.90;;;15.69;94.71;97441.63;5184074;28;20220;-60
2021/07/14 06:30:27;;;;;;;5.15;4.75;;;14.80;99.90;;;15.77;94.24;97441.03;5183943;28;20198;-61
2021/07/14 06:33:02;;;;;;;6.95;4.72;;;14.80;99.90;;;15.76;93.53;97440.97;5188088;28;20349;-61
2021/07/14 06:35:36;;;;;;;5.55;5.05;;;14.80;99.90;;;15.72;92.48;97434.88;5186775;28;20229;-60
2021/07/14 06:38:11;;;;;;;5.18;4.78;;;14.80;99.90;;;15.77;93.90;97435.88;5190872;28;20564;-59
2021/07/14 06:40:44;;;;;;;6.63;4.80;;;14.90;99.90;;;15.84;94.17;97433.50;5188235;28;20309;-60
2021/07/14 06:43:18;;;;;;;4.97;4.57;;;14.90;99.90;;;15.85;94.29;97423.25;5186587;28;20198;-61
2021/07/14 06:45:51;;;;;;;5.55;5.15;;;15.00;99.90;;;15.90;94.68;97431.09;5183579;28;20646;-61
2021/07/14 06:48:24;;;;;;;5.68;4.38;;;15.10;99.90;;;15.90;94.87;97431.94;5185983;28;20478;-60
2021/07/14 06:50:57;;;;;;;4.80;4.40;;;15.10;99.90;;;15.94;94.82;97432.94;5183391;28;20198;-60
2021/07/14 06:53:31;;;;;;;5.18;4.78;;;15.10;99.90;;;15.99;94.18;97431.34;5184584;28;20589;-61
2021/07/14 06:56:05;;;;;;;4.75;4.38;;;15.10;99.90;;;16.03;94.18;97428.03;5185867;28;20592;-60
2021/07/14 06:58:39;;;;;;;4.97;4.57;;;15.20;99.90;;;16.04;94.38;97424.63;5184217;28;20250;-61
2021/07/14 07:01:13;;;;;;;4.25;3.95;;;15.20;99.90;;;16.05;94.70;97431.50;5183205;28;20285;-61
2021/07/14 07:03:46;;;;;;;5.25;4.75;;;15.20;99.90;;;16.07;94.33;97431.56;5185226;28;20217;-60
2021/07/14 07:06:19;;;;;;;4.82;4.35;;;15.20;99.90;;;16.05;93.95;97438.38;5192968;28;20248;-59
2021/07/14 07:08:54;;;;;;;4.60;4.30;;;15.20;99.90;;;15.92;93.38;97434.59;5189452;28;20232;-60
2021/07/14 07:11:27;;;;;;;4.63;4.32;;;15.10;99.90;;;15.97;94.50;97436.47;5184414;28;20304;-60
2021/07/14 07:14:00;;;;;;;5.32;4.60;;;15.20;99.90;;;16.00;95.17;97433.13;5195092;28;20580;-61
2021/07/14 07:16:33;;;;;;;5.88;4.43;;;15.20;99.90;;;16.04;95.67;97434.94;5183302;28;20297;-61
2021/07/14 07:19:06;;;;;;;4.30;4.00;;;15.30;99.90;;;16.04;95.54;97445.25;5184113;28;20509;-61
2021/07/14 07:21:39;;;;;;;5.93;4.80;;;15.30;99.90;;;16.04;95.60;97442.66;5183851;28;20202;-61
2021/07/14 07:24:13;;;;;;;5.20;4.70;;;15.30;99.90;;;16.03;95.79;97445.22;5184443;28;20654;-60
2021/07/14 07:26:47;;;;;;;5.32;4.82;;;15.30;99.90;;;16.04;95.58;97447.81;5178308;28;20658;-61
2021/07/14 07:29:20;;;;;;;5.03;4.60;;;15.20;99.90;;;16.08;95.27;97452.25;5192713;28;20194;-61
2021/07/14 07:31:53;;;;;;;6.65;5.38;;;15.20;99.90;;;16.06;95.42;97447.88;5183708;28;20592;-61
2021/07/14 07:34:27;;;;;;;5.05;4.65;;;15.30;99.90;;;16.05;96.12;97454.72;5184264;28;20548;-61
2021/07/14 07:37:02;;;;;;;4.30;4.00;;;15.30;99.90;;;16.04;95.84;97455.56;5183335;28;20601;-60
2021/07/14 07:39:38;;;;;;;4.82;4.53;;;15.20;99.90;;;15.99;96.53;97452.88;5183501;28;20198;-60
2021/07/14 07:42:11;;;;;;;4.47;4.18;;;15.30;99.90;;;16.02;96.47;97457.22;5185503;28;20672;-60
2021/07/14 07:44:45;;;;;;;4.88;4.47;;;15.40;99.90;;;16.02;96.29;97457.22;5186973;28;20209;-60
2021/07/14 07:47:18;;;;;;;5.40;4.90;;;15.30;99.90;;;16.01;96.72;97463.19;5198746;28;20244;-61
2021/07/14 07:49:51;;;;;;;4.80;4.40;;;15.30;99.90;;;15.91;96.00;97468.91;5187786;28;20203;-61
2021/07/14 07:52:32;;;;;;;4.65;4.35;;;15.30;99.90;;;15.84;96.68;97474.72;5176968;28;20311;-60
2021/07/14 07:55:09;;;;;;;4.60;4.30;;;15.20;99.90;;;15.80;96.71;97485.78;5183890;28;20574;-60
2021/07/14 07:57:43;;;;;;;4.70;4.40;;;15.20;99.90;;;15.79;96.68;97484.00;5193202;28;20260;-61
2021/07/14 08:00:20;;;;;;;5.18;4.10;;;15.10;99.90;;;15.71;96.33;97476.94;5184442;28;20199;-61
2021/07/14 08:02:53;;;;;;;5.43;4.78;;;15.10;99.90;;;15.72;96.97;97473.53;5189204;28;20201;-61
2021/07/14 08:05:26;;;;;;;5.15;4.85;;;15.10;99.90;;;15.76;97.58;97485.66;5184319;28;20210;-61
2021/07/14 08:08:00;;;;;;;5.40;4.90;;;15.30;99.90;;;15.81;97.51;97485.81;5184536;28;20218;-61
2021/07/14 08:10:34;;;;;;;5.03;4.63;;;15.30;99.90;;;15.87;96.70;97487.69;5183684;28;20682;-61
2021/07/14 08:13:08;;;;;;;5.43;5.00;;;15.30;99.90;;;15.87;96.34;97498.00;5187920;28;20218;-61
2021/07/14 08:15:41;;;;;;;4.95;4.60;;;15.30;99.90;;;15.88;96.35;97498.06;5188398;28;20199;-61
2021/07/14 08:18:14;;;;;;;5.47;4.97;;;15.30;99.90;;;15.92;97.02;97499.91;5184689;28;20304;-60
2021/07/14 08:20:48;;;;;;;5.55;5.13;;;15.40;99.90;;;15.99;97.06;97498.38;5185852;28;20238;-62
2021/07/14 08:23:21;;;;;;;5.85;5.45;;;15.40;99.90;;;16.07;96.92;97491.75;5183951;28;20224;-61
2021/07/14 08:25:56;;;;;;;5.63;5.13;;;15.50;99.90;;;16.14;96.47;97498.84;5187077;28;20551;-62
2021/07/14 08:28:29;;;;;;;6.10;5.47;;;15.50;99.90;;;16.19;96.93;97504.13;5185721;28;20217;-61
2021/07/14 08:31:02;;;;;;;7.45;5.90;;;15.60;99.90;;;16.20;96.95;97511.91;5184094;28;20217;-62
2021/07/14 08:33:35;;;;;;;6.40;5.90;;;15.60;99.90;;;16.26;96.49;97515.50;5185842;28;20222;-63
2021/07/14 08:36:08;;;;;;;6.45;5.85;;;15.60;99.90;;;16.28;95.29;97511.25;5186084;28;20706;-62
2021/07/14 08:38:41;;;;;;;6.00;5.60;;;15.60;99.90;;;16.35;94.89;97513.19;5187289;28;20236;-61
2021/07/14 08:41:20;;;;;;;6.35;5.82;;;15.60;99.90;;;16.41;94.13;97509.06;5185088;28;20226;-61
2021/07/14 08:43:55;;;;;;;5.80;5.40;;;15.70;99.90;;;16.46;94.14;97516.94;5183243;28;20369;-61
2021/07/14 08:46:29;;;;;;;6.95;6.25;;;15.70;99.90;;;16.52;94.30;97514.53;5186802;28;20205;-61
2021/07/14 08:49:03;;;;;;;7.15;5.82;;;15.80;99.90;;;16.57;93.87;97518.13;5186930;28;20227;-62
2021/07/14 08:51:38;;;;;;;5.63;5.22;;;15.80;99.90;;;16.54;93.37;97510.31;5186946;28;20204;-61
2021/07/14 08:54:12;;;;;;;5.38;4.97;;;15.80;99.90;;;16.61;93.21;97519.94;5188711;28;20213;-62
2021/07/14 08:56:47;;;;;;;5.43;5.03;;;15.90;99.90;;;16.62;92.02;97516.53;5186791;28;20221;-61
2021/07/14 08:59:20;;;;;;;5.20;4.80;;;15.90;99.90;;;16.67;91.00;97533.00;5186354;28;20675;-61
2021/07/14 09:01:53;;;;;;;5.72;5.13;;;15.90;99.90;;;16.71;91.81;97533.09;5189570;28;20662;-62
2021/07/14 09:04:27;;;;;;;5.15;4.80;;;15.90;99.90;;;16.76;92.46;97531.53;5186133;28;20265;-62
2021/07/14 09:07:00;;;;;;;4.97;4.60;;;16.00;99.90;;;16.84;92.05;97530.94;5185389;28;20710;-61
2021/07/14 09:09:37;;;;;;;5.40;5.00;;;16.00;99.90;;;16.89;92.76;97531.06;5186579;28;20237;-62
2021/07/14 09:12:13;;;;;;;6.38;4.70;;;16.20;99.90;;;16.91;91.82;97531.97;5170709;28;20210;-62
2021/07/14 09:14:49;;;;;;;5.00;4.60;;;16.10;99.90;;;16.93;91.13;97517.41;5183741;28;20264;-61
2021/07/14 09:17:25;;;;;;;6.13;4.90;;;16.20;99.90;;;16.97;90.28;97524.41;5183564;28;20224;-62
2021/07/14 09:20:09;;;;;;;4.95;4.65;;;16.20;99.90;;;17.02;91.10;97515.03;5184604;28;20585;-62
2021/07/14 09:22:43;;;;;;;5.43;5.00;;;16.20;99.90;;;17.04;89.10;97513.38;5185340;28;20197;-62
2021/07/14 09:25:18;;;;;;;5.00;4.60;;;16.30;99.90;;;17.02;90.36;97517.63;5187216;28;20194;-59
2021/07/14 09:27:58;;;;;;;5.15;4.75;;;16.20;99.90;;;17.08;90.32;97519.50;5183954;28;20283;-61
2021/07/14 09:30:31;;;;;;;5.00;4.60;;;16.30;99.90;;;17.13;90.25;97514.47;5185236;28;20678;-62
2021/07/14 09:33:07;;;;;;;5.30;4.90;;;16.30;99.90;;;17.16;90.53;97514.53;5184958;28;20225;-62
2021/07/14 09:35:45;;;;;;;5.22;4.88;;;16.30;99.90;;;17.17;89.32;97524.03;5185446;28;20202;-61
2021/07/14 09:38:20;;;;;;;5.10;4.70;;;16.40;99.90;;;17.20;89.22;97526.72;5184982;28;20214;-61
2021/07/14 09:40:56;;;;;;;4.95;4.65;;;16.40;99.90;;;17.28;89.59;97522.59;5185024;28;20202;-60
2021/07/14 09:43:34;;;;;;;6.28;4.93;;;16.40;99.90;;;17.27;89.63;97533.78;5183802;28;20278;-61
2021/07/14 09:46:09;;;;;;;5.20;4.80;;;16.50;99.90;;;17.35;88.84;97532.25;5193133;28;20300;-61
2021/07/14 09:48:44;;;;;;;4.78;4.43;;;16.50;99.90;;;17.42;87.62;97531.56;5187845;28;20341;-60
2021/07/14 09:51:20;;;;;;;5.03;4.63;;;16.50;99.90;;;17.47;87.34;97535.13;5185329;28;20205;-61
2021/07/14 09:53:56;;;;;;;5.00;4.60;;;16.50;99.90;;;17.50;87.51;97534.34;5184740;28;20589;-61
2021/07/14 09:56:32;;;;;;;4.93;4.53;;;16.60;99.90;;;17.61;86.92;97532.91;5185260;28;20205;-61
2021/07/14 09:59:08;;;;;;;5.13;4.72;;;16.60;99.90;;;17.69;86.61;97536.53;5184724;28;20222;-61
2021/07/14 10:01:45;;;;;;;5.18;4.78;;;16.70;99.90;;;17.83;86.95;97539.50;5185214;28;20252;-61
2021/07/14 10:04:24;;;;;;;4.72;4.43;;;16.90;99.90;;;17.94;85.28;97538.03;5185352;28;20230;-61
2021/07/14 10:07:09;;;;;;;5.55;5.05;;;16.90;99.90;;;17.93;85.30;97545.72;5183832;28;20222;-62
2021/07/14 10:09:44;;;;;;;4.90;4.47;;;17.00;99.90;;;17.97;85.03;97543.28;5185278;28;20581;-61
2021/07/14 10:12:29;;;;;;;4.80;4.30;;;17.00;99.90;;;18.10;83.39;97546.13;5184055;28;20205;-61
2021/07/14 10:15:21;;;;;;;6.30;4.90;;;17.00;99.90;;;18.08;81.76;97540.03;5175589;28;20226;-61
2021/07/14 10:17:54;;;;;;;5.55;4.80;;;17.00;99.90;;;18.10;82.47;97543.53;5178459;28;20616;-62
2021/07/14 10:20:30;;;;;;;5.35;4.35;;;17.10;99.90;;;18.13;83.28;97541.00;5177524;28;20335;-60
2021/07/14 10:23:06;;;;;;;4.93;4.40;;;17.20;99.90;;;18.26;82.16;97539.56;5180097;28;20745;-62
2021/07/14 10:25:43;;;;;;;4.85;4.45;;;17.20;99.90;;;18.29;81.77;97535.34;5182284;28;20293;-61
2021/07/14 10:28:19;;;;;;;12.35;11.13;;;17.30;99.90;;;18.35;82.20;97535.47;5183692;28;20226;-62
2021/07/14 10:30:54;;;;;;;15.30;13.80;;;17.30;99.90;;;18.43;80.80;97541.69;5184744;28;20521;-61
2021/07/14 10:33:32;;;;;;;11.15;10.05;;;17.40;99.90;;;18.51;80.21;97547.00;5184903;28;20217;-62
2021/07/14 10:36:10;;;;;;;7.93;6.25;;;17.40;99.90;;;18.58;80.04;97546.31;5181425;28;20194;-62
2021/07/14 10:38:50;;;;;;;6.35;5.85;;;17.40;99.90;;;18.64;80.93;97553.31;5183134;28;20226;-62
2021/07/14 10:41:27;;;;;;;5.10;4.60;;;17.60;99.90;;;18.81;79.80;97556.28;5176531;28;20205;-62
2021/07/14 10:44:01;;;;;;;5.10;4.60;;;17.70;99.90;;;18.89;79.22;97554.72;5184204;28;20569;-62
2021/07/14 10:46:38;;;;;;;5.03;4.50;;;17.80;99.90;;;18.94;77.89;97557.38;5189030;28;20204;-62
2021/07/14 10:49:11;;;;;;;5.05;4.65;;;17.90;99.90;;;19.02;77.30;97561.84;5185506;28;20248;-62
2021/07/14 10:51:44;;;;;;;4.97;4.68;;;18.00;99.90;;;19.15;77.47;97560.38;5189839;28;20217;-62
2021/07/14 10:54:25;;;;;;;4.88;4.47;;;18.20;99.90;;;19.32;76.10;97556.38;5184269;28;20222;-62